Time;durP1;ratioP1;P1;durP2;ratioP2;P2;SDS_P1;SDS_P2;PMS_P1;PMS_P2;Temp;Humidity;BMP_temperature;BMP_pressure;BME280_temperature;BME280_humidity;BME280_pressure;Samples;Min_cycle;Max_cycle;Signal;HPM_P1;HPM_P2
2022/05/11 00:01:47;;;;;;;0.00;0.00;;;;;;;16.40;62.65;101284.41;10498078;28;20087;-79
2022/05/11 00:06:49;;;;;;;0.00;0.00;;;;;;;16.14;64.28;101275.53;10499420;28;20087;-79
2022/05/11 00:11:51;;;;;;;0.00;0.00;;;;;;;16.41;63.72;101276.63;10497678;28;20110;-80
2022/05/11 00:16:56;;;;;;;0.00;0.00;;;;;;;16.08;64.87;101262.47;10499379;28;20053;-79
2022/05/11 00:21:58;;;;;;;0.00;0.00;;;;;;;15.98;66.60;101265.84;10500384;28;20044;-79
2022/05/11 00:27:02;;;;;;;0.00;0.00;;;;;;;16.00;66.30;101269.31;10498866;28;20075;-80
2022/05/11 00:32:04;;;;;;;0.00;0.00;;;;;;;16.10;66.34;101260.78;10534021;28;20044;-80
2022/05/11 00:37:05;;;;;;;0.00;0.00;;;;;;;15.99;65.07;101255.47;10518445;28;20117;-79
2022/05/11 00:42:07;;;;;;;0.00;0.00;;;;;;;16.06;65.33;101248.59;10540245;28;20060;-79
2022/05/11 00:47:32;;;;;;;0.00;0.00;;;;;;;16.05;66.15;101246.84;10541336;28;20105;-79
2022/05/11 00:52:52;;;;;;;0.00;0.00;;;;;;;16.31;66.70;101243.59;10540739;28;20056;-79
2022/05/11 00:57:59;;;;;;;0.00;0.00;;;;;;;16.11;66.35;101231.31;10521888;28;20063;-79
2022/05/11 01:03:05;;;;;;;0.00;0.00;;;;;;;16.05;67.00;101226.06;10540484;28;20051;-79
2022/05/11 01:08:07;;;;;;;0.00;0.00;;;;;;;16.04;67.74;101207.84;10529044;28;20071;-79
2022/05/11 01:13:13;;;;;;;0.00;0.00;;;;;;;16.29;66.42;101207.19;10498606;28;20059;-80
2022/05/11 01:18:16;;;;;;;0.00;0.00;;;;;;;16.13;66.45;101208.78;10507480;28;20045;-80
2022/05/11 01:23:27;;;;;;;0.00;0.00;;;;;;;15.94;67.42;101209.50;10520904;28;20044;-80
2022/05/11 01:28:29;;;;;;;0.00;0.00;;;;;;;15.95;66.58;101198.28;10528817;28;20049;-79
2022/05/11 01:33:42;;;;;;;0.00;0.00;;;;;;;16.03;66.70;101194.00;10503949;28;20044;-80
2022/05/11 01:38:45;;;;;;;0.00;0.00;;;;;;;15.86;66.33;101188.69;10530000;28;20110;-80
2022/05/11 01:43:46;;;;;;;0.00;0.00;;;;;;;15.77;67.05;101173.81;10496868;28;20369;-79
2022/05/11 01:48:48;;;;;;;0.00;0.00;;;;;;;15.83;66.76;101173.03;10541127;28;20044;-80
2022/05/11 01:53:51;;;;;;;0.32;0.32;;;;;;;15.58;67.14;101179.72;10546832;28;20066;-80
2022/05/11 01:58:53;;;;;;;0.00;0.00;;;;;;;15.50;68.14;101170.13;10536539;28;20044;-80
2022/05/11 02:03:55;;;;;;;0.00;0.00;;;;;;;15.58;68.12;101169.31;10522084;28;20716;-80
2022/05/11 02:08:57;;;;;;;0.00;0.00;;;;;;;15.71;67.60;101150.41;10546978;28;20051;-80
2022/05/11 02:13:59;;;;;;;0.00;0.00;;;;;;;15.78;66.23;101144.41;10546756;28;20052;-80
2022/05/11 02:19:00;;;;;;;0.00;0.00;;;;;;;15.51;66.48;101155.41;10523868;28;20053;-80
2022/05/11 02:24:02;;;;;;;0.00;0.00;;;;;;;15.54;67.27;101138.13;10511950;28;20110;-80
2022/05/11 02:29:04;;;;;;;0.00;0.00;;;;;;;15.64;67.14;101135.63;10518527;28;20101;-80
2022/05/11 02:34:06;;;;;;;0.35;0.35;;;;;;;15.47;67.14;101128.53;10530748;28;20051;-80
2022/05/11 02:39:08;;;;;;;0.00;0.00;;;;;;;15.81;65.97;101134.03;10502490;28;20048;-79
2022/05/11 02:44:11;;;;;;;0.10;0.10;;;;;;;15.67;64.74;101130.47;10523046;28;20048;-79
2022/05/11 02:49:12;;;;;;;0.25;0.20;;;;;;;15.77;64.14;101132.25;10536795;28;20051;-79
2022/05/11 02:54:14;;;;;;;0.00;0.00;;;;;;;15.89;63.70;101136.72;10528567;28;20060;-80
2022/05/11 02:59:16;;;;;;;0.00;0.00;;;;;;;16.03;64.04;101129.03;10542866;28;20048;-79
2022/05/11 03:04:18;;;;;;;0.00;0.00;;;;;;;15.79;63.74;101130.56;10532012;28;20495;-80
2022/05/11 03:09:20;;;;;;;0.00;0.00;;;;;;;15.91;63.67;101129.81;10544691;28;20052;-80
2022/05/11 03:14:22;;;;;;;0.00;0.00;;;;;;;15.92;62.96;101122.88;10538772;28;20426;-75
2022/05/11 03:19:24;;;;;;;0.00;0.00;;;;;;;15.89;63.17;101115.06;10520606;28;20044;-76
2022/05/11 03:24:27;;;;;;;0.00;0.00;;;;;;;15.91;62.84;101118.53;10544716;28;20052;-75
2022/05/11 03:29:29;;;;;;;0.00;0.00;;;;;;;15.94;62.45;101118.56;10544232;28;20078;-76
2022/05/11 03:34:36;;;;;;;0.00;0.00;;;;;;;16.01;61.58;101109.97;10543056;28;20435;-76
2022/05/11 03:39:38;;;;;;;0.00;0.00;;;;;;;15.90;61.57;101106.44;10544285;28;20117;-75
2022/05/11 03:44:40;;;;;;;0.00;0.00;;;;;;;16.01;61.29;101095.22;10542536;28;20105;-76
2022/05/11 03:49:42;;;;;;;0.00;0.00;;;;;;;15.92;61.27;101095.19;10544083;28;20048;-75
2022/05/11 03:54:44;;;;;;;0.00;0.00;;;;;;;15.91;61.71;101089.94;10543648;28;20070;-76
2022/05/11 03:59:46;;;;;;;0.00;0.00;;;;;;;15.84;62.40;101081.28;10542382;28;20089;-77
2022/05/11 04:04:47;;;;;;;0.00;0.00;;;;;;;15.79;61.80;101083.78;10542046;28;20078;-76
2022/05/11 04:09:49;;;;;;;0.00;0.00;;;;;;;15.85;61.43;101085.59;10540623;28;20059;-75
2022/05/11 04:14:50;;;;;;;0.00;0.00;;;;;;;15.73;61.84;101081.16;10542779;28;20052;-76
2022/05/11 04:19:52;;;;;;;0.05;0.05;;;;;;;15.61;62.11;101079.34;10542449;28;20048;-76
2022/05/11 04:24:54;;;;;;;1.90;1.80;;;;;;;15.65;62.98;101085.41;10542320;28;20113;-75
2022/05/11 04:29:55;;;;;;;0.00;0.00;;;;;;;15.63;63.55;101067.25;10541837;28;20506;-76
2022/05/11 04:34:57;;;;;;;0.00;0.00;;;;;;;15.69;63.45;101067.28;10541984;28;20056;-76
2022/05/11 04:39:59;;;;;;;0.00;0.00;;;;;;;15.64;64.04;101063.75;10540807;28;20427;-77
2022/05/11 04:45:00;;;;;;;0.00;0.00;;;;;;;15.77;63.67;101063.88;10541591;28;20066;-76
2022/05/11 04:50:02;;;;;;;0.00;0.00;;;;;;;15.82;63.76;101060.41;10539878;28;20040;-76
2022/05/11 04:55:06;;;;;;;0.00;0.00;;;;;;;15.81;63.73;101063.91;10525456;28;20044;-76
2022/05/11 05:00:10;;;;;;;0.00;0.00;;;;;;;16.03;63.02;101064.06;10499054;28;20554;-76
2022/05/11 05:05:12;;;;;;;0.00;0.00;;;;;;;16.06;61.68;101069.25;10500169;28;20053;-76
2022/05/11 05:10:15;;;;;;;0.10;0.10;;;;;;;16.23;61.67;101076.28;10523223;28;20048;-76
2022/05/11 05:15:17;;;;;;;0.52;0.52;;;;;;;16.33;61.57;101070.28;10541696;28;20058;-76
2022/05/11 05:20:19;;;;;;;0.00;0.00;;;;;;;16.45;61.20;101080.75;10540632;28;20125;-76
2022/05/11 05:25:21;;;;;;;0.00;0.00;;;;;;;16.62;59.62;101077.34;10540445;28;20055;-75
2022/05/11 05:35:42;;;;;;;;;;;;;;;16.81;58.60;101089.53;10539759;28;20048;-76
2022/05/11 05:40:46;;;;;;;0.00;0.00;;;;;;;17.04;58.62;101091.38;10539989;28;19920;-76
2022/05/11 05:45:52;;;;;;;0.00;0.00;;;;;;;17.10;57.49;101088.78;10538557;28;20105;-76
2022/05/11 05:51:01;;;;;;;0.00;0.00;;;;;;;17.12;57.04;101084.44;10539292;28;20059;-77
2022/05/11 05:56:03;;;;;;;0.00;0.00;;;;;;;17.28;57.55;101074.91;10528167;28;20546;-76
2022/05/11 06:01:05;;;;;;;0.00;0.00;;;;;;;17.62;55.21;101081.84;10498169;28;20045;-75
2022/05/11 06:06:08;;;;;;;0.52;0.10;;;;;;;17.38;54.45;101086.22;10496549;28;20545;-76
2022/05/11 06:11:10;;;;;;;0.00;0.00;;;;;;;17.64;54.43;101077.53;10496168;28;20063;-75
2022/05/11 06:16:14;;;;;;;0.17;0.17;;;;;;;17.69;54.68;101082.72;10497971;28;20052;-75
2022/05/11 06:21:16;;;;;;;0.00;0.00;;;;;;;17.66;54.33;101081.00;10496266;28;20052;-76
2022/05/11 06:26:19;;;;;;;0.20;0.20;;;;;;;17.90;53.90;101079.25;10497535;28;20051;-77
2022/05/11 06:31:22;;;;;;;0.00;0.00;;;;;;;18.00;54.25;101075.75;10499651;28;20117;-76
2022/05/11 06:36:24;;;;;;;0.00;0.00;;;;;;;17.87;54.91;101068.81;10505429;28;20056;-76
2022/05/11 06:41:28;;;;;;;0.00;0.00;;;;;;;18.05;55.06;101066.22;10486694;28;20110;-76
2022/05/11 06:46:29;;;;;;;0.25;0.25;;;;;;;17.89;53.66;101057.50;10503035;28;20044;-76
2022/05/11 06:51:31;;;;;;;0.30;0.30;;;;;;;18.37;52.65;101053.94;10504312;28;20069;-76
2022/05/11 07:02:03;;;;;;;0.00;0.00;;;;;;;17.97;52.10;101060.16;10504535;28;20492;-77
2022/05/11 07:07:06;;;;;;;0.00;0.00;;;;;;;18.29;52.31;101061.78;10504787;28;20053;-75
2022/05/11 07:12:17;;;;;;;0.45;0.20;;;;;;;18.60;51.23;101055.56;10503362;28;20060;-76
2022/05/11 07:17:35;;;;;;;0.00;0.00;;;;;;;18.99;50.85;101053.63;10502932;28;20456;-76
2022/05/11 07:22:40;;;;;;;0.00;0.00;;;;;;;19.34;49.54;101050.75;10503552;28;20557;-76
2022/05/11 07:27:44;;;;;;;0.00;0.00;;;;;;;19.15;49.85;101050.03;10502490;28;20381;-77
2022/05/11 07:32:46;;;;;;;0.00;0.00;;;;;;;19.38;50.12;101046.38;10502519;28;20553;-77
2022/05/11 07:37:48;;;;;;;0.00;0.00;;;;;;;18.83;50.80;101056.31;10509599;28;20085;-77
2022/05/11 07:42:50;;;;;;;0.80;0.30;;;;;;;19.15;48.70;101046.56;10542859;28;20048;-75
2022/05/11 07:47:52;;;;;;;0.00;0.00;;;;;;;19.75;47.93;101045.19;10543779;28;20067;-75
2022/05/11 07:52:54;;;;;;;0.20;0.10;;;;;;;20.04;46.13;101046.66;10542284;28;20060;-76
2022/05/11 08:03:17;;;;;;;7.93;0.43;;;;;;;20.05;45.82;101056.22;10543799;28;20044;-76
2022/05/11 08:08:19;;;;;;;0.00;0.00;;;;;;;20.41;46.20;101056.66;10542988;28;20055;-77
2022/05/11 08:13:21;;;;;;;6.90;0.98;;;;;;;20.64;45.34;101058.13;10543051;28;20067;-77
2022/05/11 08:18:22;;;;;;;1.40;0.30;;;;;;;20.58;46.70;101056.44;10542702;28;20414;-76
2022/05/11 08:23:26;;;;;;;0.00;0.00;;;;;;;20.71;45.43;101054.53;10541270;28;20123;-76
2022/05/11 08:28:28;;;;;;;0.75;0.25;;;;;;;20.92;45.35;101064.72;10542129;28;20403;-78
2022/05/11 08:33:32;;;;;;;0.75;0.43;;;;;;;20.03;46.67;101050.13;10538166;28;20055;-76
2022/05/11 08:38:55;;;;;;;0.00;0.00;;;;;;;20.89;46.03;101053.44;10498464;28;20400;-76
2022/05/11 08:44:20;;;;;;;0.10;0.10;;;;;;;20.83;45.53;101057.00;10500394;28;20495;-77
2022/05/11 08:50:13;;;;;;;0.35;0.35;;;;;;;20.63;46.58;101062.47;10499967;28;20057;-76
2022/05/11 08:55:28;;;;;;;0.15;0.15;;;;;;;21.27;45.03;101058.94;10372332;28;20092;-78
2022/05/11 09:00:30;;;;;;;0.00;0.00;;;;;;;21.08;45.66;101054.03;10477325;28;20557;-75
2022/05/11 09:05:32;;;;;;;0.00;0.00;;;;;;;21.52;44.10;101047.19;10515881;28;20067;-78
2022/05/11 09:10:36;;;;;;;0.08;0.08;;;;;;;21.71;43.37;101046.88;10541444;28;20047;-76
2022/05/11 09:15:53;;;;;;;1.08;0.22;;;;;;;20.87;44.76;101045.59;10540441;28;20495;-76
2022/05/11 09:20:55;;;;;;;0.03;0.03;;;;;;;20.92;43.84;101042.94;10540940;28;20097;-76
2022/05/11 09:26:03;;;;;;;0.30;0.30;;;;;;;20.34;45.19;101053.25;10540591;28;20388;-76
2022/05/11 09:31:28;;;;;;;0.20;0.10;;;;;;;21.37;44.38;101036.97;10540553;28;20051;-78
2022/05/11 09:36:42;;;;;;;1.48;0.80;;;;;;;21.21;43.15;101031.97;10540288;28;20059;-77
2022/05/11 09:41:49;;;;;;;0.00;0.00;;;;;;;21.77;43.18;101033.66;10540664;28;20052;-77
2022/05/11 09:46:52;;;;;;;0.60;0.60;;;;;;;21.63;42.34;101033.06;10540630;28;20083;-76
2022/05/11 09:51:56;;;;;;;0.40;0.28;;;;;;;21.48;44.06;101034.16;10540503;28;20449;-76
2022/05/11 09:56:58;;;;;;;0.30;0.30;;;;;;;22.26;42.89;101030.97;10541647;28;20048;-78
2022/05/11 10:02:10;;;;;;;0.00;0.00;;;;;;;22.40;43.42;101028.94;10541506;28;20056;-78
2022/05/11 10:07:16;;;;;;;0.00;0.00;;;;;;;22.27;42.36;101033.53;10543913;28;20388;-78
2022/05/11 10:12:23;;;;;;;2.53;1.00;;;;;;;22.02;42.24;101025.31;10513930;28;20392;-79
2022/05/11 10:23:16;;;;;;;3.33;0.43;;;;;;;21.99;42.82;101007.88;10509982;28;20098;-77
2022/05/11 10:28:23;;;;;;;1.08;0.75;;;;;;;22.28;42.65;101013.44;10546200;28;20048;-78
2022/05/11 10:33:58;;;;;;;0.30;0.30;;;;;;;22.29;44.47;101005.50;10546493;28;20047;-78
2022/05/11 10:39:13;;;;;;;0.30;0.30;;;;;;;22.73;42.52;100994.97;10546038;28;20048;-77
2022/05/11 10:44:47;;;;;;;0.93;0.85;;;;;;;22.26;43.18;100995.09;10545734;28;20048;-76
2022/05/11 10:49:52;;;;;;;0.45;0.45;;;;;;;21.99;42.70;100992.13;10546617;28;20044;-79
2022/05/11 10:55:13;;;;;;;0.75;0.55;;;;;;;22.37;41.44;100997.50;10546487;28;20381;-79
2022/05/11 11:00:18;;;;;;;0.30;0.30;;;;;;;22.25;41.81;100998.63;10546742;28;20079;-79
2022/05/11 11:05:40;;;;;;;0.13;0.13;;;;;;;22.68;43.28;100986.31;10546183;28;20056;-79
2022/05/11 11:11:05;;;;;;;0.10;0.10;;;;;;;22.37;41.45;100992.25;10540505;28;20052;-80
2022/05/11 11:16:12;;;;;;;0.88;0.32;;;;;;;22.78;41.51;100979.94;10541062;28;20109;-79
2022/05/11 11:21:14;;;;;;;2.17;0.70;;;;;;;22.56;40.23;100981.34;10521173;28;20526;-77
2022/05/11 11:26:28;;;;;;;6.13;1.42;;;;;;;22.66;42.15;100973.22;10517236;28;20059;-79
2022/05/11 11:31:29;;;;;;;0.85;0.75;;;;;;;22.79;41.20;100978.16;10548235;28;21463;-79
2022/05/11 11:36:37;;;;;;;1.35;0.88;;;;;;;22.95;42.45;100970.78;10540070;28;20549;-79
2022/05/11 11:41:41;;;;;;;1.58;1.27;;;;;;;22.81;40.90;100971.13;10536530;28;20050;-79
2022/05/11 11:46:45;;;;;;;1.98;0.80;;;;;;;22.49;40.59;100968.38;10517361;28;20045;-79
2022/05/11 11:51:50;;;;;;;2.38;0.73;;;;;;;22.96;40.67;100969.91;10505134;28;20075;-80
2022/05/11 11:56:54;;;;;;;0.20;0.20;;;;;;;23.24;41.39;100953.47;10522681;28;20044;-79
2022/05/11 12:02:05;;;;;;;0.50;0.30;;;;;;;22.74;41.33;100948.53;10519605;28;20056;-78
2022/05/11 12:18:01;;;;;;;1.75;0.88;;;;;;;23.18;38.50;100932.59;10535124;28;20105;-79
2022/05/11 12:23:03;;;;;;;3.30;0.88;;;;;;;23.11;37.29;100927.47;10534474;28;20048;-77
2022/05/11 12:28:24;;;;;;;1.90;1.65;;;;;;;23.24;38.10;100919.28;10531933;28;20036;-79
2022/05/11 12:33:32;;;;;;;0.28;0.10;;;;;;;23.91;38.07;100931.44;10536805;28;20081;-79
2022/05/11 12:38:38;;;;;;;0.00;0.00;;;;;;;24.10;37.08;100923.00;10530852;28;20098;-78
2022/05/11 12:44:03;;;;;;;0.73;0.55;;;;;;;23.53;39.17;100917.63;10538209;28;20135;-79
2022/05/11 12:49:05;;;;;;;0.13;0.10;;;;;;;23.98;38.54;100909.34;10536025;28;20499;-79
2022/05/11 12:54:16;;;;;;;0.10;0.05;;;;;;;24.13;39.57;100902.72;10536531;28;20052;-78
2022/05/11 12:59:22;;;;;;;1.60;0.65;;;;;;;23.00;37.37;100903.22;10537081;28;20101;-79
2022/05/11 13:04:25;;;;;;;0.93;0.50;;;;;;;23.38;37.55;100898.75;10535153;28;20113;-79
2022/05/11 13:09:47;;;;;;;1.80;0.98;;;;;;;23.68;38.34;100901.41;10534997;28;20052;-78
2022/05/11 13:14:54;;;;;;;0.03;0.00;;;;;;;23.88;37.01;100898.19;10532153;28;20048;-77
2022/05/11 13:20:00;;;;;;;0.00;0.00;;;;;;;24.19;37.34;100891.16;10532380;28;20037;-78
2022/05/11 13:25:06;;;;;;;0.00;0.00;;;;;;;24.08;37.62;100888.84;10516213;28;20237;-78
2022/05/11 13:30:07;;;;;;;0.10;0.10;;;;;;;23.49;37.52;100885.28;10522627;28;20052;-78
2022/05/11 13:35:18;;;;;;;0.00;0.00;;;;;;;24.20;37.51;100861.28;10534504;28;20109;-78
2022/05/11 13:40:33;;;;;;;9.75;0.30;;;;;;;24.30;36.17;100878.53;10529962;28;20055;-78
2022/05/11 13:45:35;;;;;;;2.38;0.25;;;;;;;24.10;36.61;100865.13;10528022;28;20055;-78
2022/05/11 13:50:51;;;;;;;0.47;0.38;;;;;;;24.23;36.54;100863.84;10530201;28;20068;-79
2022/05/11 13:56:05;;;;;;;2.35;0.63;;;;;;;24.16;36.88;100859.69;10532511;28;20062;-77
2022/05/11 14:01:13;;;;;;;0.55;0.30;;;;;;;24.18;36.49;100863.09;10500822;28;20056;-78
2022/05/11 14:06:19;;;;;;;3.63;0.50;;;;;;;24.46;36.89;100856.97;10512218;28;20048;-78
2022/05/11 14:11:22;;;;;;;0.90;0.22;;;;;;;24.46;38.11;100846.44;10509161;28;20053;-78
2022/05/11 14:16:26;;;;;;;0.63;0.38;;;;;;;24.62;35.51;100841.50;10510724;28;20049;-77
2022/05/11 14:21:28;;;;;;;1.75;0.52;;;;;;;23.95;36.44;100851.53;10522217;28;20056;-78
2022/05/11 14:26:30;;;;;;;1.48;0.60;;;;;;;24.46;36.42;100835.91;10530453;28;20101;-78
2022/05/11 14:31:31;;;;;;;6.82;2.35;;;;;;;24.46;35.26;100839.38;10528479;28;20055;-78
2022/05/11 14:36:33;;;;;;;0.10;0.10;;;;;;;23.85;36.89;100834.28;10511733;28;20626;-78
2022/05/11 14:41:35;;;;;;;0.65;0.30;;;;;;;23.96;37.66;100837.47;10512831;28;20056;-79
2022/05/11 14:46:39;;;;;;;3.50;0.57;;;;;;;24.05;36.83;100834.56;10516453;28;20110;-78
2022/05/11 14:51:41;;;;;;;0.15;0.15;;;;;;;23.87;37.27;100833.34;10521025;28;20057;-78
2022/05/11 14:56:42;;;;;;;9.32;0.60;;;;;;;24.30;35.79;100820.63;10518194;28;20048;-79
2022/05/11 15:01:57;;;;;;;1.67;0.28;;;;;;;24.27;36.25;100820.69;10533048;28;20052;-77
2022/05/11 15:07:14;;;;;;;0.17;0.03;;;;;;;24.22;36.39;100815.59;10537901;28;20048;-80
2022/05/11 15:17:37;;;;;;;5.72;1.08;;;;;;;24.03;36.93;100817.09;10538695;28;20044;-79
2022/05/11 15:22:52;;;;;;;1.75;0.98;;;;;;;23.34;37.56;100812.13;10533284;28;20127;-78
2022/05/11 15:27:53;;;;;;;0.20;0.20;;;;;;;24.34;36.91;100801.16;10536206;28;20056;-79
2022/05/11 15:32:59;;;;;;;0.10;0.10;;;;;;;23.87;36.06;100812.28;10539367;28;20422;-79
2022/05/11 15:38:01;;;;;;;0.15;0.10;;;;;;;23.65;36.83;100801.56;10546556;28;20063;-79
2022/05/11 15:43:05;;;;;;;0.38;0.30;;;;;;;24.11;37.85;100796.66;10544267;28;20094;-79
2022/05/11 15:48:27;;;;;;;0.00;0.00;;;;;;;23.26;37.14;100800.06;10538218;28;20148;-77
2022/05/11 15:53:33;;;;;;;0.25;0.25;;;;;;;23.63;38.26;100803.38;10540890;28;20056;-79
2022/05/11 15:58:36;;;;;;;0.00;0.00;;;;;;;22.96;38.04;100804.41;10496983;28;20511;-79
2022/05/11 16:03:38;;;;;;;0.10;0.10;;;;;;;22.80;39.69;100807.44;10509397;28;20056;-79
2022/05/11 16:08:41;;;;;;;1.02;0.82;;;;;;;23.16;40.42;100803.81;10514205;28;20123;-80
2022/05/11 16:13:42;;;;;;;5.15;0.90;;;;;;;23.48;39.82;100794.19;10506633;28;20060;-80
2022/05/11 16:24:04;;;;;;;0.00;0.00;;;;;;;23.47;40.32;100794.22;10522341;28;20064;-79
2022/05/11 16:29:06;;;;;;;0.00;0.00;;;;;;;23.79;39.67;100795.03;10510373;28;20050;-79
2022/05/11 16:34:08;;;;;;;0.10;0.10;;;;;;;23.65;39.90;100806.81;10519974;28;20495;-80
2022/05/11 16:39:12;;;;;;;0.20;0.15;;;;;;;23.39;41.26;100804.97;10507191;28;20519;-80
2022/05/11 16:44:14;;;;;;;1.55;1.45;;;;;;;23.30;40.42;100792.94;10511485;28;20052;-79
2022/05/11 16:49:15;;;;;;;0.00;0.00;;;;;;;22.85;40.01;100788.06;10505194;28;20051;-79
2022/05/11 16:54:17;;;;;;;0.10;0.10;;;;;;;23.06;41.25;100773.47;10504603;28;20059;-79
2022/05/11 16:59:22;;;;;;;0.00;0.00;;;;;;;23.24;39.16;100765.06;10534005;28;20064;-79
2022/05/11 17:04:25;;;;;;;0.00;0.00;;;;;;;23.16;40.16;100774.06;10516986;28;20044;-78
2022/05/11 17:09:27;;;;;;;0.00;0.00;;;;;;;23.05;38.91;100775.22;10526323;28;20134;-78
2022/05/11 17:14:29;;;;;;;0.10;0.05;;;;;;;23.09;38.63;100762.84;10546118;28;20048;-77
2022/05/11 17:19:31;;;;;;;0.00;0.00;;;;;;;23.06;39.60;100760.34;10532306;28;20048;-80
2022/05/11 17:24:34;;;;;;;0.10;0.10;;;;;;;22.88;39.99;100772.22;10524875;28;20054;-79
2022/05/11 17:29:36;;;;;;;0.00;0.00;;;;;;;22.95;41.56;100773.78;10520124;28;20101;-79
2022/05/11 17:34:40;;;;;;;0.00;0.00;;;;;;;22.63;40.65;100775.50;10531525;28;20052;-78
2022/05/11 17:39:42;;;;;;;0.10;0.10;;;;;;;22.24;41.33;100781.72;10509145;28;20048;-80
2022/05/11 17:44:43;;;;;;;0.05;0.05;;;;;;;21.95;42.08;100785.00;10526754;28;20059;-79
2022/05/11 17:49:45;;;;;;;0.00;0.00;;;;;;;21.73;42.58;100788.13;10505215;28;20117;-78
2022/05/11 17:54:52;;;;;;;0.00;0.00;;;;;;;21.51;42.09;100801.69;10499298;28;20102;-79
2022/05/11 17:59:54;;;;;;;0.00;0.00;;;;;;;21.36;42.83;100799.38;10494380;28;20053;-79
2022/05/11 18:04:55;;;;;;;2.08;1.35;;;;;;;21.13;43.19;100800.72;10494736;28;20064;-79
2022/05/11 18:09:59;;;;;;;0.00;0.00;;;;;;;21.00;43.58;100791.38;10526760;28;20048;-79
2022/05/11 18:15:01;;;;;;;0.20;0.10;;;;;;;20.83;43.51;100800.41;10497706;28;20059;-80
2022/05/11 18:20:05;;;;;;;0.00;0.00;;;;;;;20.77;43.48;100800.53;10507320;28;20044;-79
2022/05/11 18:25:07;;;;;;;0.43;0.30;;;;;;;20.50;42.64;100807.06;10516176;28;20428;-80
2022/05/11 18:30:10;;;;;;;0.00;0.00;;;;;;;20.37;43.52;100814.25;10517084;28;20045;-78
2022/05/11 18:35:13;;;;;;;0.10;0.10;;;;;;;20.17;44.73;100827.66;10521282;28;20052;-79
2022/05/11 18:40:16;;;;;;;0.15;0.15;;;;;;;20.13;43.74;100837.31;10504308;28;20123;-77
2022/05/11 18:45:19;;;;;;;0.00;0.00;;;;;;;19.92;44.95;100844.56;10498528;28;20064;-78
2022/05/11 18:50:23;;;;;;;0.30;0.25;;;;;;;19.68;45.34;100852.72;10534684;28;20063;-78
2022/05/11 18:55:25;;;;;;;0.55;0.55;;;;;;;19.47;44.97;100849.47;10540018;28;20105;-78
2022/05/11 19:00:32;;;;;;;0.63;0.35;;;;;;;19.17;46.22;100854.16;10514259;28;20052;-78
2022/05/11 19:05:34;;;;;;;0.47;0.30;;;;;;;19.06;46.18;100862.13;10538120;28;20053;-78
2022/05/11 19:10:36;;;;;;;0.35;0.10;;;;;;;18.93;47.00;100874.41;10512037;28;20500;-79
2022/05/11 19:15:37;;;;;;;0.22;0.10;;;;;;;18.61;47.36;100870.31;10521073;28;20079;-76
2022/05/11 19:20:39;;;;;;;0.00;0.00;;;;;;;18.53;48.01;100877.31;10500860;28;20052;-79
2022/05/11 19:25:40;;;;;;;5.28;2.72;;;;;;;18.33;49.29;100872.22;10537725;28;20105;-79
2022/05/11 19:30:42;;;;;;;0.20;0.15;;;;;;;18.20;49.63;100876.69;10555209;28;20054;-78
2022/05/11 19:35:44;;;;;;;0.20;0.17;;;;;;;18.29;49.91;100880.97;10540032;28;20044;-78
2022/05/11 19:40:47;;;;;;;0.00;0.00;;;;;;;18.19;50.12;100878.41;10501960;28;20068;-79
2022/05/11 19:45:52;;;;;;;0.47;0.20;;;;;;;18.17;50.32;100872.34;10498552;28;20071;-78
2022/05/11 19:50:55;;;;;;;0.00;0.00;;;;;;;18.22;50.68;100872.31;10503584;28;20047;-77
2022/05/11 19:55:57;;;;;;;0.00;0.00;;;;;;;18.07;51.27;100874.13;10514067;28;20385;-78
2022/05/11 20:01:00;;;;;;;0.00;0.00;;;;;;;18.15;51.66;100866.28;10519209;28;20503;-78
2022/05/11 20:06:08;;;;;;;0.00;0.00;;;;;;;18.02;51.54;100860.28;10538844;28;20048;-77
2022/05/11 20:11:10;;;;;;;6.32;1.02;;;;;;;17.97;51.93;100856.84;10527109;28;20077;-78
2022/05/11 20:16:14;;;;;;;0.00;0.00;;;;;;;18.01;52.17;100857.69;10538009;28;20488;-78
2022/05/11 20:21:16;;;;;;;0.22;0.22;;;;;;;18.07;52.30;100849.81;10529864;28;20058;-78
2022/05/11 20:26:18;;;;;;;0.00;0.00;;;;;;;17.96;53.47;100856.81;10534172;28;20057;-77
2022/05/11 20:36:44;;;;;;;0.00;0.00;;;;;;;17.12;60.08;100902.22;10534226;28;20527;-79
2022/05/11 20:41:46;;;;;;;0.85;0.65;;;;;;;16.77;61.53;100926.50;10532518;28;20048;-78
2022/05/11 20:46:48;;;;;;;0.47;0.25;;;;;;;16.24;66.55;100950.66;10536028;28;20055;-79
2022/05/11 20:51:50;;;;;;;2.13;0.60;;;;;;;15.85;69.23;100938.38;10529489;28;20102;-78
2022/05/11 20:56:54;;;;;;;0.00;0.00;;;;;;;15.50;72.62;100925.16;10537938;28;20040;-77
2022/05/11 21:01:56;;;;;;;1.98;0.95;;;;;;;15.45;72.55;100917.34;10514993;28;20498;-76
2022/05/11 21:06:58;;;;;;;3.05;0.90;;;;;;;15.43;73.07;100924.28;10536129;28;20051;-77
2022/05/11 21:12:00;;;;;;;0.00;0.00;;;;;;;15.53;72.88;100920.00;10535341;28;20044;-77
2022/05/11 21:17:02;;;;;;;0.00;0.00;;;;;;;15.54;72.81;100938.19;10535636;28;20052;-79
2022/05/11 21:22:04;;;;;;;0.10;0.10;;;;;;;15.60;73.37;100936.50;10530337;28;20053;-79
2022/05/11 21:27:06;;;;;;;12.95;0.65;;;;;;;15.57;73.10;100939.06;10533251;28;20056;-78
2022/05/11 21:32:08;;;;;;;0.00;0.00;;;;;;;15.74;72.95;100963.41;10534358;28;20495;-78
2022/05/11 21:37:10;;;;;;;0.00;0.00;;;;;;;15.68;72.95;100986.72;10534984;28;20048;-78
2022/05/11 21:42:12;;;;;;;0.20;0.10;;;;;;;15.63;72.71;100991.03;10533846;28;20056;-79
2022/05/11 21:47:14;;;;;;;0.98;0.30;;;;;;;15.85;71.76;101005.94;10547075;28;20174;-78
2022/05/11 21:52:16;;;;;;;0.00;0.00;;;;;;;15.94;71.07;100996.44;10544197;28;20594;-78
2022/05/11 21:57:17;;;;;;;1.00;0.52;;;;;;;15.96;70.92;100981.75;10535004;28;20062;-78
2022/05/11 22:02:19;;;;;;;1.27;0.43;;;;;;;15.90;70.14;100981.72;10528634;28;20044;-77
2022/05/11 22:07:21;;;;;;;1.63;1.10;;;;;;;15.87;69.72;100977.34;10541813;28;20047;-77
2022/05/11 22:12:22;;;;;;;0.10;0.00;;;;;;;15.91;70.03;100993.81;10541672;28;20384;-79
2022/05/11 22:17:24;;;;;;;2.95;0.93;;;;;;;15.82;69.58;101000.66;10528924;28;20057;-79
2022/05/11 22:22:25;;;;;;;0.73;0.25;;;;;;;15.55;69.74;100997.06;10517648;28;20157;-77
2022/05/11 22:27:27;;;;;;;0.38;0.20;;;;;;;15.31;71.17;101012.44;10500161;28;20060;-80
2022/05/11 22:32:29;;;;;;;0.00;0.00;;;;;;;15.39;71.85;101005.59;10500088;28;20041;-79
2022/05/11 22:37:30;;;;;;;0.98;0.40;;;;;;;15.27;72.79;101031.44;10540719;28;20117;-78
2022/05/11 22:42:33;;;;;;;0.35;0.30;;;;;;;15.11;73.44;101052.06;10541041;28;20052;-78
2022/05/11 22:47:35;;;;;;;0.10;0.10;;;;;;;15.11;73.97;101066.78;10541687;28;20113;-78
2022/05/11 22:52:37;;;;;;;2.35;1.35;;;;;;;15.01;73.60;101070.97;10523887;28;20109;-77
2022/05/11 22:57:38;;;;;;;0.20;0.20;;;;;;;14.97;73.97;101084.78;10542134;28;20052;-78
2022/05/11 23:02:40;;;;;;;0.10;0.10;;;;;;;14.90;73.48;101099.41;10547042;28;20080;-79
2022/05/11 23:07:42;;;;;;;0.00;0.00;;;;;;;14.69;73.26;101102.66;10500080;28;20415;-79
2022/05/11 23:12:44;;;;;;;0.43;0.20;;;;;;;14.58;71.82;101087.78;10526749;28;20052;-79
2022/05/11 23:17:46;;;;;;;0.35;0.35;;;;;;;14.56;71.68;101112.81;10541162;28;20064;-79
2022/05/11 23:22:50;;;;;;;0.00;0.00;;;;;;;14.47;71.58;101132.56;10511020;28;20048;-79
2022/05/11 23:27:52;;;;;;;0.00;0.00;;;;;;;14.32;70.80;101135.84;10497063;28;20049;-80
2022/05/11 23:32:55;;;;;;;0.00;0.00;;;;;;;14.23;71.37;101142.63;10496927;28;20106;-79
2022/05/11 23:37:58;;;;;;;1.65;1.00;;;;;;;13.90;71.44;101159.38;10496336;28;20056;-77
2022/05/11 23:43:00;;;;;;;0.00;0.00;;;;;;;13.93;71.41;101172.38;10536799;28;20055;-79
2022/05/11 23:48:03;;;;;;;0.00;0.00;;;;;;;13.80;71.68;101185.97;10538757;28;20521;-79
2022/05/11 23:53:05;;;;;;;0.20;0.20;;;;;;;13.60;72.10;101207.19;10537423;28;20061;-79
2022/05/11 23:58:07;;;;;;;0.00;0.00;;;;;;;13.50;72.13;101231.19;10538545;28;20106;-79
